sensor_id;sensor_type;location;lat;lon;timestamp;P1;durP1;ratioP1;P2;durP2;ratioP2
8044;SDS011;4065;48.754;9.982;2022-11-11T00:00:46;4.00;;;3.33;;
8044;SDS011;4065;48.754;9.982;2022-11-11T00:03:48;3.88;;;3.55;;
8044;SDS011;4065;48.754;9.982;2022-11-11T00:06:50;7.43;;;4.13;;
8044;SDS011;4065;48.754;9.982;2022-11-11T00:09:52;4.15;;;3.30;;
8044;SDS011;4065;48.754;9.982;2022-11-11T00:12:57;5.43;;;3.70;;
8044;SDS011;4065;48.754;9.982;2022-11-11T00:16:04;3.95;;;3.38;;
8044;SDS011;4065;48.754;9.982;2022-11-11T00:19:06;4.53;;;3.70;;
8044;SDS011;4065;48.754;9.982;2022-11-11T00:22:26;4.60;;;3.63;;
8044;SDS011;4065;48.754;9.982;2022-11-11T00:25:46;9.02;;;5.82;;
8044;SDS011;4065;48.754;9.982;2022-11-11T00:28:51;11.15;;;6.13;;
8044;SDS011;4065;48.754;9.982;2022-11-11T00:31:54;9.40;;;6.00;;
8044;SDS011;4065;48.754;9.982;2022-11-11T00:35:13;6.82;;;4.68;;
8044;SDS011;4065;48.754;9.982;2022-11-11T00:38:33;12.20;;;6.65;;
8044;SDS011;4065;48.754;9.982;2022-11-11T00:41:47;9.85;;;6.05;;
8044;SDS011;4065;48.754;9.982;2022-11-11T00:44:48;14.07;;;7.97;;
8044;SDS011;4065;48.754;9.982;2022-11-11T00:47:51;16.65;;;11.23;;
8044;SDS011;4065;48.754;9.982;2022-11-11T00:51:06;14.20;;;9.25;;
8044;SDS011;4065;48.754;9.982;2022-11-11T00:54:08;11.25;;;6.82;;
8044;SDS011;4065;48.754;9.982;2022-11-11T00:57:10;14.80;;;6.80;;
8044;SDS011;4065;48.754;9.982;2022-11-11T01:00:12;9.85;;;6.93;;
8044;SDS011;4065;48.754;9.982;2022-11-11T01:03:15;13.40;;;7.90;;
8044;SDS011;4065;48.754;9.982;2022-11-11T01:06:17;17.23;;;10.00;;
8044;SDS011;4065;48.754;9.982;2022-11-11T01:09:18;17.45;;;11.48;;
8044;SDS011;4065;48.754;9.982;2022-11-11T01:12:20;15.32;;;8.93;;
8044;SDS011;4065;48.754;9.982;2022-11-11T01:15:21;14.20;;;8.48;;
8044;SDS011;4065;48.754;9.982;2022-11-11T01:18:25;12.15;;;8.63;;
8044;SDS011;4065;48.754;9.982;2022-11-11T01:21:28;25.13;;;14.80;;
8044;SDS011;4065;48.754;9.982;2022-11-11T01:24:29;16.40;;;9.52;;
8044;SDS011;4065;48.754;9.982;2022-11-11T01:27:32;11.40;;;7.43;;
8044;SDS011;4065;48.754;9.982;2022-11-11T01:30:34;11.82;;;7.35;;
8044;SDS011;4065;48.754;9.982;2022-11-11T01:33:37;14.73;;;9.88;;
8044;SDS011;4065;48.754;9.982;2022-11-11T01:36:39;10.70;;;8.15;;
8044;SDS011;4065;48.754;9.982;2022-11-11T01:39:41;12.20;;;8.23;;
8044;SDS011;4065;48.754;9.982;2022-11-11T01:42:46;12.77;;;7.20;;
8044;SDS011;4065;48.754;9.982;2022-11-11T01:45:50;10.48;;;6.97;;
8044;SDS011;4065;48.754;9.982;2022-11-11T01:48:57;9.23;;;6.40;;
8044;SDS011;4065;48.754;9.982;2022-11-11T01:52:20;10.35;;;7.40;;
8044;SDS011;4065;48.754;9.982;2022-11-11T01:55:24;8.68;;;7.25;;
8044;SDS011;4065;48.754;9.982;2022-11-11T01:58:26;13.50;;;7.63;;
8044;SDS011;4065;48.754;9.982;2022-11-11T02:01:28;9.60;;;7.28;;
8044;SDS011;4065;48.754;9.982;2022-11-11T02:04:31;8.13;;;6.50;;
8044;SDS011;4065;48.754;9.982;2022-11-11T02:07:51;10.18;;;7.18;;
8044;SDS011;4065;48.754;9.982;2022-11-11T02:10:53;11.05;;;7.25;;
8044;SDS011;4065;48.754;9.982;2022-11-11T02:13:54;10.38;;;6.97;;
8044;SDS011;4065;48.754;9.982;2022-11-11T02:17:14;8.25;;;6.55;;
8044;SDS011;4065;48.754;9.982;2022-11-11T02:20:18;12.45;;;6.85;;
8044;SDS011;4065;48.754;9.982;2022-11-11T02:23:24;11.07;;;7.00;;
8044;SDS011;4065;48.754;9.982;2022-11-11T02:26:30;10.63;;;6.90;;
8044;SDS011;4065;48.754;9.982;2022-11-11T02:29:32;9.10;;;7.00;;
8044;SDS011;4065;48.754;9.982;2022-11-11T02:32:35;7.32;;;6.50;;
8044;SDS011;4065;48.754;9.982;2022-11-11T02:35:37;9.80;;;6.60;;
8044;SDS011;4065;48.754;9.982;2022-11-11T02:38:39;7.63;;;6.70;;
8044;SDS011;4065;48.754;9.982;2022-11-11T02:41:44;7.82;;;6.68;;
8044;SDS011;4065;48.754;9.982;2022-11-11T02:44:56;7.55;;;6.50;;
8044;SDS011;4065;48.754;9.982;2022-11-11T02:47:59;7.70;;;6.60;;
8044;SDS011;4065;48.754;9.982;2022-11-11T02:51:03;16.17;;;7.60;;
8044;SDS011;4065;48.754;9.982;2022-11-11T02:54:06;7.78;;;6.93;;
8044;SDS011;4065;48.754;9.982;2022-11-11T02:57:09;11.45;;;7.63;;
8044;SDS011;4065;48.754;9.982;2022-11-11T03:00:11;8.75;;;7.35;;
8044;SDS011;4065;48.754;9.982;2022-11-11T03:03:14;11.27;;;7.97;;
8044;SDS011;4065;48.754;9.982;2022-11-11T03:06:16;10.13;;;7.28;;
8044;SDS011;4065;48.754;9.982;2022-11-11T03:09:17;8.57;;;7.50;;
8044;SDS011;4065;48.754;9.982;2022-11-11T03:12:20;10.32;;;6.88;;
8044;SDS011;4065;48.754;9.982;2022-11-11T03:15:22;8.43;;;7.07;;
8044;SDS011;4065;48.754;9.982;2022-11-11T03:18:23;11.18;;;7.85;;
8044;SDS011;4065;48.754;9.982;2022-11-11T03:21:24;8.60;;;6.82;;
8044;SDS011;4065;48.754;9.982;2022-11-11T03:24:26;8.85;;;6.97;;
8044;SDS011;4065;48.754;9.982;2022-11-11T03:27:50;8.40;;;6.97;;
8044;SDS011;4065;48.754;9.982;2022-11-11T03:30:52;8.68;;;6.30;;
8044;SDS011;4065;48.754;9.982;2022-11-11T03:33:53;8.20;;;7.05;;
8044;SDS011;4065;48.754;9.982;2022-11-11T03:36:55;8.88;;;7.13;;
8044;SDS011;4065;48.754;9.982;2022-11-11T03:40:14;12.00;;;8.57;;
8044;SDS011;4065;48.754;9.982;2022-11-11T03:43:17;14.00;;;7.75;;
8044;SDS011;4065;48.754;9.982;2022-11-11T03:46:20;9.07;;;7.18;;
8044;SDS011;4065;48.754;9.982;2022-11-11T03:49:21;7.90;;;6.55;;
8044;SDS011;4065;48.754;9.982;2022-11-11T03:52:23;8.65;;;7.00;;
8044;SDS011;4065;48.754;9.982;2022-11-11T03:55:25;9.80;;;7.22;;
8044;SDS011;4065;48.754;9.982;2022-11-11T03:58:28;8.65;;;6.88;;
8044;SDS011;4065;48.754;9.982;2022-11-11T04:01:29;10.25;;;7.47;;
8044;SDS011;4065;48.754;9.982;2022-11-11T04:04:48;8.93;;;6.72;;
8044;SDS011;4065;48.754;9.982;2022-11-11T04:08:10;9.18;;;7.38;;
8044;SDS011;4065;48.754;9.982;2022-11-11T04:11:30;7.35;;;6.65;;
8044;SDS011;4065;48.754;9.982;2022-11-11T04:14:35;8.05;;;6.47;;
8044;SDS011;4065;48.754;9.982;2022-11-11T04:17:54;8.95;;;7.32;;
8044;SDS011;4065;48.754;9.982;2022-11-11T04:20:55;9.75;;;6.90;;
8044;SDS011;4065;48.754;9.982;2022-11-11T04:24:14;10.85;;;7.18;;
8044;SDS011;4065;48.754;9.982;2022-11-11T04:27:34;23.73;;;16.33;;
8044;SDS011;4065;48.754;9.982;2022-11-11T04:30:37;31.05;;;18.65;;
8044;SDS011;4065;48.754;9.982;2022-11-11T04:33:38;17.58;;;12.02;;
8044;SDS011;4065;48.754;9.982;2022-11-11T04:36:39;11.30;;;8.57;;
8044;SDS011;4065;48.754;9.982;2022-11-11T04:39:41;15.55;;;9.80;;
8044;SDS011;4065;48.754;9.982;2022-11-11T04:43:00;8.88;;;7.18;;
8044;SDS011;4065;48.754;9.982;2022-11-11T04:46:03;13.13;;;8.30;;
8044;SDS011;4065;48.754;9.982;2022-11-11T04:49:04;18.85;;;11.25;;
8044;SDS011;4065;48.754;9.982;2022-11-11T04:52:07;57.75;;;29.58;;
8044;SDS011;4065;48.754;9.982;2022-11-11T04:55:28;17.70;;;12.93;;
8044;SDS011;4065;48.754;9.982;2022-11-11T04:58:49;13.18;;;9.50;;
8044;SDS011;4065;48.754;9.982;2022-11-11T05:02:12;15.23;;;9.63;;
8044;SDS011;4065;48.754;9.982;2022-11-11T05:05:31;13.13;;;9.57;;
8044;SDS011;4065;48.754;9.982;2022-11-11T05:08:53;14.05;;;9.93;;
8044;SDS011;4065;48.754;9.982;2022-11-11T05:11:57;12.25;;;8.90;;
8044;SDS011;4065;48.754;9.982;2022-11-11T05:14:59;14.63;;;9.18;;
8044;SDS011;4065;48.754;9.982;2022-11-11T05:18:19;12.63;;;8.15;;
8044;SDS011;4065;48.754;9.982;2022-11-11T05:21:44;10.95;;;8.63;;
8044;SDS011;4065;48.754;9.982;2022-11-11T05:24:45;12.27;;;8.13;;
8044;SDS011;4065;48.754;9.982;2022-11-11T05:28:04;13.27;;;9.00;;
8044;SDS011;4065;48.754;9.982;2022-11-11T05:31:06;14.18;;;8.18;;
8044;SDS011;4065;48.754;9.982;2022-11-11T05:34:09;13.60;;;8.60;;
8044;SDS011;4065;48.754;9.982;2022-11-11T05:37:10;16.85;;;9.35;;
8044;SDS011;4065;48.754;9.982;2022-11-11T05:40:12;14.55;;;9.68;;
8044;SDS011;4065;48.754;9.982;2022-11-11T05:43:15;17.63;;;12.15;;
8044;SDS011;4065;48.754;9.982;2022-11-11T05:46:17;10.20;;;8.38;;
8044;SDS011;4065;48.754;9.982;2022-11-11T05:49:20;23.95;;;11.80;;
8044;SDS011;4065;48.754;9.982;2022-11-11T05:52:21;10.02;;;7.80;;
8044;SDS011;4065;48.754;9.982;2022-11-11T05:55:23;10.18;;;7.68;;
8044;SDS011;4065;48.754;9.982;2022-11-11T05:58:25;11.10;;;8.93;;
8044;SDS011;4065;48.754;9.982;2022-11-11T06:01:29;10.48;;;8.05;;
8044;SDS011;4065;48.754;9.982;2022-11-11T06:04:32;10.70;;;8.55;;
8044;SDS011;4065;48.754;9.982;2022-11-11T06:07:36;14.25;;;8.80;;
8044;SDS011;4065;48.754;9.982;2022-11-11T06:10:39;10.70;;;7.35;;
8044;SDS011;4065;48.754;9.982;2022-11-11T06:13:42;9.57;;;7.55;;
8044;SDS011;4065;48.754;9.982;2022-11-11T06:16:49;9.63;;;6.60;;
8044;SDS011;4065;48.754;9.982;2022-11-11T06:19:52;13.90;;;8.25;;
8044;SDS011;4065;48.754;9.982;2022-11-11T06:22:53;14.50;;;8.50;;
8044;SDS011;4065;48.754;9.982;2022-11-11T06:25:58;12.80;;;7.97;;
8044;SDS011;4065;48.754;9.982;2022-11-11T06:29:15;12.02;;;8.45;;
8044;SDS011;4065;48.754;9.982;2022-11-11T06:32:17;15.15;;;9.05;;
8044;SDS011;4065;48.754;9.982;2022-11-11T06:35:20;15.70;;;8.75;;
8044;SDS011;4065;48.754;9.982;2022-11-11T06:38:21;14.88;;;9.52;;
8044;SDS011;4065;48.754;9.982;2022-11-11T06:41:30;12.55;;;9.40;;
8044;SDS011;4065;48.754;9.982;2022-11-11T06:44:32;9.55;;;7.60;;
8044;SDS011;4065;48.754;9.982;2022-11-11T06:47:34;31.73;;;27.10;;
8044;SDS011;4065;48.754;9.982;2022-11-11T06:50:37;33.72;;;29.98;;
8044;SDS011;4065;48.754;9.982;2022-11-11T06:53:42;22.08;;;19.90;;
8044;SDS011;4065;48.754;9.982;2022-11-11T06:56:46;19.60;;;15.25;;
8044;SDS011;4065;48.754;9.982;2022-11-11T06:59:48;24.40;;;19.20;;
8044;SDS011;4065;48.754;9.982;2022-11-11T07:02:53;30.52;;;22.67;;
8044;SDS011;4065;48.754;9.982;2022-11-11T07:05:59;19.15;;;16.30;;
8044;SDS011;4065;48.754;9.982;2022-11-11T07:09:00;24.80;;;18.55;;
8044;SDS011;4065;48.754;9.982;2022-11-11T07:12:02;15.90;;;12.15;;
8044;SDS011;4065;48.754;9.982;2022-11-11T07:15:06;18.98;;;12.07;;
8044;SDS011;4065;48.754;9.982;2022-11-11T07:18:09;20.65;;;13.80;;
8044;SDS011;4065;48.754;9.982;2022-11-11T07:21:12;18.40;;;14.18;;
8044;SDS011;4065;48.754;9.982;2022-11-11T07:24:13;25.00;;;15.95;;
8044;SDS011;4065;48.754;9.982;2022-11-11T07:27:15;24.60;;;17.50;;
8044;SDS011;4065;48.754;9.982;2022-11-11T07:30:20;22.15;;;14.98;;
8044;SDS011;4065;48.754;9.982;2022-11-11T07:33:22;19.00;;;13.55;;
8044;SDS011;4065;48.754;9.982;2022-11-11T07:36:25;18.88;;;13.00;;
8044;SDS011;4065;48.754;9.982;2022-11-11T07:39:26;14.45;;;13.05;;
8044;SDS011;4065;48.754;9.982;2022-11-11T07:42:28;18.65;;;11.57;;
8044;SDS011;4065;48.754;9.982;2022-11-11T07:45:32;10.02;;;8.98;;
8044;SDS011;4065;48.754;9.982;2022-11-11T07:48:33;10.88;;;9.48;;
8044;SDS011;4065;48.754;9.982;2022-11-11T07:51:36;11.80;;;10.60;;
8044;SDS011;4065;48.754;9.982;2022-11-11T07:54:38;14.55;;;9.80;;
8044;SDS011;4065;48.754;9.982;2022-11-11T07:57:42;13.88;;;9.05;;
8044;SDS011;4065;48.754;9.982;2022-11-11T08:00:45;13.57;;;11.55;;
8044;SDS011;4065;48.754;9.982;2022-11-11T08:03:47;38.70;;;21.05;;
8044;SDS011;4065;48.754;9.982;2022-11-11T08:06:59;29.35;;;19.52;;
8044;SDS011;4065;48.754;9.982;2022-11-11T08:10:01;27.38;;;18.08;;
8044;SDS011;4065;48.754;9.982;2022-11-11T08:13:03;20.00;;;14.20;;
8044;SDS011;4065;48.754;9.982;2022-11-11T08:16:26;13.63;;;10.23;;
8044;SDS011;4065;48.754;9.982;2022-11-11T08:19:31;11.30;;;8.52;;
8044;SDS011;4065;48.754;9.982;2022-11-11T08:22:38;9.60;;;8.13;;
8044;SDS011;4065;48.754;9.982;2022-11-11T08:25:40;11.77;;;7.13;;
8044;SDS011;4065;48.754;9.982;2022-11-11T08:28:42;12.02;;;9.88;;
8044;SDS011;4065;48.754;9.982;2022-11-11T08:31:43;18.35;;;13.15;;
8044;SDS011;4065;48.754;9.982;2022-11-11T08:34:45;53.70;;;29.88;;
8044;SDS011;4065;48.754;9.982;2022-11-11T08:37:48;49.03;;;29.08;;
8044;SDS011;4065;48.754;9.982;2022-11-11T08:40:50;42.92;;;26.83;;
8044;SDS011;4065;48.754;9.982;2022-11-11T08:43:52;36.75;;;24.42;;
8044;SDS011;4065;48.754;9.982;2022-11-11T08:46:54;26.05;;;18.25;;
8044;SDS011;4065;48.754;9.982;2022-11-11T08:49:56;19.10;;;12.70;;
8044;SDS011;4065;48.754;9.982;2022-11-11T08:53:02;14.57;;;11.80;;
8044;SDS011;4065;48.754;9.982;2022-11-11T08:56:06;10.63;;;8.70;;
8044;SDS011;4065;48.754;9.982;2022-11-11T08:59:11;18.77;;;10.98;;
8044;SDS011;4065;48.754;9.982;2022-11-11T09:02:13;10.25;;;7.25;;
8044;SDS011;4065;48.754;9.982;2022-11-11T09:05:15;12.43;;;6.93;;
8044;SDS011;4065;48.754;9.982;2022-11-11T09:08:18;10.00;;;8.35;;
8044;SDS011;4065;48.754;9.982;2022-11-11T09:11:20;11.60;;;8.65;;
8044;SDS011;4065;48.754;9.982;2022-11-11T09:14:21;13.60;;;9.27;;
8044;SDS011;4065;48.754;9.982;2022-11-11T09:17:26;13.48;;;11.20;;
8044;SDS011;4065;48.754;9.982;2022-11-11T09:20:28;11.57;;;8.85;;
8044;SDS011;4065;48.754;9.982;2022-11-11T09:23:32;11.57;;;7.47;;
8044;SDS011;4065;48.754;9.982;2022-11-11T09:26:37;11.02;;;8.38;;
8044;SDS011;4065;48.754;9.982;2022-11-11T09:29:38;7.05;;;5.82;;
8044;SDS011;4065;48.754;9.982;2022-11-11T09:32:40;8.27;;;5.68;;
8044;SDS011;4065;48.754;9.982;2022-11-11T09:35:42;6.85;;;4.57;;
8044;SDS011;4065;48.754;9.982;2022-11-11T09:38:45;7.13;;;4.97;;
8044;SDS011;4065;48.754;9.982;2022-11-11T09:41:51;10.82;;;4.97;;
8044;SDS011;4065;48.754;9.982;2022-11-11T09:45:05;7.28;;;3.28;;
8044;SDS011;4065;48.754;9.982;2022-11-11T09:48:19;5.07;;;3.53;;
8044;SDS011;4065;48.754;9.982;2022-11-11T09:51:31;3.75;;;3.45;;
8044;SDS011;4065;48.754;9.982;2022-11-11T09:54:39;4.45;;;3.30;;
8044;SDS011;4065;48.754;9.982;2022-11-11T09:57:48;5.93;;;3.88;;
8044;SDS011;4065;48.754;9.982;2022-11-11T10:00:59;3.42;;;3.13;;
8044;SDS011;4065;48.754;9.982;2022-11-11T10:04:04;3.65;;;3.35;;
8044;SDS011;4065;48.754;9.982;2022-11-11T10:07:17;6.03;;;4.22;;
8044;SDS011;4065;48.754;9.982;2022-11-11T10:10:30;5.65;;;4.45;;
8044;SDS011;4065;48.754;9.982;2022-11-11T10:13:38;6.03;;;4.20;;
8044;SDS011;4065;48.754;9.982;2022-11-11T10:16:44;8.07;;;4.97;;
8044;SDS011;4065;48.754;9.982;2022-11-11T10:19:51;4.28;;;3.88;;
8044;SDS011;4065;48.754;9.982;2022-11-11T10:23:01;5.25;;;4.00;;
8044;SDS011;4065;48.754;9.982;2022-11-11T10:26:10;4.78;;;4.00;;
8044;SDS011;4065;48.754;9.982;2022-11-11T10:29:16;4.75;;;3.33;;
8044;SDS011;4065;48.754;9.982;2022-11-11T10:32:20;51.72;;;21.30;;
8044;SDS011;4065;48.754;9.982;2022-11-11T10:35:24;11.27;;;5.65;;
8044;SDS011;4065;48.754;9.982;2022-11-11T10:38:32;4.22;;;3.78;;
8044;SDS011;4065;48.754;9.982;2022-11-11T10:41:41;4.10;;;3.60;;
8044;SDS011;4065;48.754;9.982;2022-11-11T10:44:47;5.30;;;3.72;;
8044;SDS011;4065;48.754;9.982;2022-11-11T10:47:51;4.50;;;3.40;;
8044;SDS011;4065;48.754;9.982;2022-11-11T10:50:56;4.72;;;3.55;;
8044;SDS011;4065;48.754;9.982;2022-11-11T10:54:00;6.53;;;3.42;;
8044;SDS011;4065;48.754;9.982;2022-11-11T10:57:08;4.68;;;3.53;;
8044;SDS011;4065;48.754;9.982;2022-11-11T11:00:12;4.03;;;3.00;;
8044;SDS011;4065;48.754;9.982;2022-11-11T11:03:15;4.35;;;3.38;;
8044;SDS011;4065;48.754;9.982;2022-11-11T11:06:23;6.10;;;3.35;;
8044;SDS011;4065;48.754;9.982;2022-11-11T11:09:31;4.47;;;2.95;;
8044;SDS011;4065;48.754;9.982;2022-11-11T11:12:38;2.90;;;2.60;;
8044;SDS011;4065;48.754;9.982;2022-11-11T11:15:43;3.85;;;3.17;;
8044;SDS011;4065;48.754;9.982;2022-11-11T11:22:14;5.72;;;2.80;;
8044;SDS011;4065;48.754;9.982;2022-11-11T11:25:16;3.60;;;2.47;;
8044;SDS011;4065;48.754;9.982;2022-11-11T11:28:24;2.50;;;2.30;;
8044;SDS011;4065;48.754;9.982;2022-11-11T11:31:40;2.47;;;2.28;;
8044;SDS011;4065;48.754;9.982;2022-11-11T11:34:47;2.60;;;2.25;;
8044;SDS011;4065;48.754;9.982;2022-11-11T11:37:50;3.90;;;3.45;;
8044;SDS011;4065;48.754;9.982;2022-11-11T11:40:53;6.15;;;4.03;;
8044;SDS011;4065;48.754;9.982;2022-11-11T11:43:57;4.13;;;3.10;;
8044;SDS011;4065;48.754;9.982;2022-11-11T11:47:06;4.18;;;2.40;;
8044;SDS011;4065;48.754;9.982;2022-11-11T11:53:46;4.07;;;2.25;;
8044;SDS011;4065;48.754;9.982;2022-11-11T11:56:55;4.00;;;2.28;;
8044;SDS011;4065;48.754;9.982;2022-11-11T12:00:00;7.60;;;4.35;;
8044;SDS011;4065;48.754;9.982;2022-11-11T12:03:23;9.20;;;4.80;;
8044;SDS011;4065;48.754;9.982;2022-11-11T12:06:42;7.35;;;4.93;;
8044;SDS011;4065;48.754;9.982;2022-11-11T12:09:53;6.07;;;3.85;;
8044;SDS011;4065;48.754;9.982;2022-11-11T12:13:01;5.88;;;3.88;;
8044;SDS011;4065;48.754;9.982;2022-11-11T12:16:13;6.88;;;4.40;;
8044;SDS011;4065;48.754;9.982;2022-11-11T12:19:35;6.22;;;4.38;;
8044;SDS011;4065;48.754;9.982;2022-11-11T12:22:47;5.90;;;3.92;;
8044;SDS011;4065;48.754;9.982;2022-11-11T12:26:02;7.88;;;4.47;;
8044;SDS011;4065;48.754;9.982;2022-11-11T12:29:13;7.07;;;4.78;;
8044;SDS011;4065;48.754;9.982;2022-11-11T12:32:33;7.97;;;5.95;;
8044;SDS011;4065;48.754;9.982;2022-11-11T12:35:59;5.60;;;4.22;;
8044;SDS011;4065;48.754;9.982;2022-11-11T12:39:10;6.00;;;4.22;;
8044;SDS011;4065;48.754;9.982;2022-11-11T12:42:25;6.70;;;4.10;;
8044;SDS011;4065;48.754;9.982;2022-11-11T12:45:37;6.78;;;4.15;;
8044;SDS011;4065;48.754;9.982;2022-11-11T12:48:47;4.82;;;4.20;;
8044;SDS011;4065;48.754;9.982;2022-11-11T12:51:55;8.65;;;3.67;;
8044;SDS011;4065;48.754;9.982;2022-11-11T12:55:11;6.00;;;4.07;;
8044;SDS011;4065;48.754;9.982;2022-11-11T12:58:17;7.32;;;4.93;;
8044;SDS011;4065;48.754;9.982;2022-11-11T13:01:28;5.22;;;3.70;;
8044;SDS011;4065;48.754;9.982;2022-11-11T13:04:49;4.85;;;3.92;;
8044;SDS011;4065;48.754;9.982;2022-11-11T13:08:08;4.40;;;3.92;;
8044;SDS011;4065;48.754;9.982;2022-11-11T13:11:32;5.25;;;4.00;;
8044;SDS011;4065;48.754;9.982;2022-11-11T13:18:00;4.75;;;3.30;;
8044;SDS011;4065;48.754;9.982;2022-11-11T13:21:05;4.13;;;3.10;;
8044;SDS011;4065;48.754;9.982;2022-11-11T13:24:09;3.63;;;3.00;;
8044;SDS011;4065;48.754;9.982;2022-11-11T13:27:14;5.05;;;2.83;;
8044;SDS011;4065;48.754;9.982;2022-11-11T13:30:25;3.97;;;2.80;;
8044;SDS011;4065;48.754;9.982;2022-11-11T13:33:36;3.92;;;2.63;;
8044;SDS011;4065;48.754;9.982;2022-11-11T13:36:43;3.80;;;2.60;;
8044;SDS011;4065;48.754;9.982;2022-11-11T13:39:57;4.72;;;2.25;;
8044;SDS011;4065;48.754;9.982;2022-11-11T13:43:02;3.90;;;2.25;;
8044;SDS011;4065;48.754;9.982;2022-11-11T13:46:05;6.05;;;4.45;;
8044;SDS011;4065;48.754;9.982;2022-11-11T13:49:07;4.68;;;3.72;;
8044;SDS011;4065;48.754;9.982;2022-11-11T13:52:21;5.15;;;4.10;;
8044;SDS011;4065;48.754;9.982;2022-11-11T13:55:27;5.35;;;4.53;;
8044;SDS011;4065;48.754;9.982;2022-11-11T13:58:32;4.63;;;3.83;;
8044;SDS011;4065;48.754;9.982;2022-11-11T14:01:37;5.72;;;3.90;;
8044;SDS011;4065;48.754;9.982;2022-11-11T14:12:00;11.02;;;5.25;;
8044;SDS011;4065;48.754;9.982;2022-11-11T14:15:35;13.98;;;4.57;;
8044;SDS011;4065;48.754;9.982;2022-11-11T14:18:51;5.93;;;4.70;;
8044;SDS011;4065;48.754;9.982;2022-11-11T14:21:56;6.25;;;4.70;;
8044;SDS011;4065;48.754;9.982;2022-11-11T14:25:19;6.97;;;4.53;;
8044;SDS011;4065;48.754;9.982;2022-11-11T14:28:23;6.65;;;4.50;;
8044;SDS011;4065;48.754;9.982;2022-11-11T14:31:38;6.15;;;4.78;;
8044;SDS011;4065;48.754;9.982;2022-11-11T14:38:37;7.60;;;4.40;;
8044;SDS011;4065;48.754;9.982;2022-11-11T14:41:47;7.85;;;4.65;;
8044;SDS011;4065;48.754;9.982;2022-11-11T14:44:50;6.47;;;4.95;;
8044;SDS011;4065;48.754;9.982;2022-11-11T14:47:52;9.18;;;5.35;;
8044;SDS011;4065;48.754;9.982;2022-11-11T14:50:55;11.20;;;5.53;;
8044;SDS011;4065;48.754;9.982;2022-11-11T14:53:57;8.63;;;6.50;;
8044;SDS011;4065;48.754;9.982;2022-11-11T14:57:09;6.60;;;5.95;;
8044;SDS011;4065;48.754;9.982;2022-11-11T15:00:23;8.52;;;6.22;;
8044;SDS011;4065;48.754;9.982;2022-11-11T15:03:30;8.93;;;6.45;;
8044;SDS011;4065;48.754;9.982;2022-11-11T15:06:37;8.32;;;6.32;;
8044;SDS011;4065;48.754;9.982;2022-11-11T15:09:56;10.25;;;8.73;;
8044;SDS011;4065;48.754;9.982;2022-11-11T15:13:27;6.45;;;5.80;;
8044;SDS011;4065;48.754;9.982;2022-11-11T15:16:55;6.50;;;5.32;;
8044;SDS011;4065;48.754;9.982;2022-11-11T15:20:16;5.70;;;5.10;;
8044;SDS011;4065;48.754;9.982;2022-11-11T15:23:30;6.93;;;5.57;;
8044;SDS011;4065;48.754;9.982;2022-11-11T15:26:35;6.63;;;5.97;;
8044;SDS011;4065;48.754;9.982;2022-11-11T15:29:48;8.07;;;7.28;;
8044;SDS011;4065;48.754;9.982;2022-11-11T15:33:01;10.43;;;8.15;;
8044;SDS011;4065;48.754;9.982;2022-11-11T15:36:07;10.07;;;8.70;;
8044;SDS011;4065;48.754;9.982;2022-11-11T15:39:13;19.63;;;13.35;;
8044;SDS011;4065;48.754;9.982;2022-11-11T15:42:17;16.05;;;11.65;;
8044;SDS011;4065;48.754;9.982;2022-11-11T15:45:27;16.98;;;12.57;;
8044;SDS011;4065;48.754;9.982;2022-11-11T15:48:33;17.02;;;14.55;;
8044;SDS011;4065;48.754;9.982;2022-11-11T15:51:40;17.52;;;14.60;;
8044;SDS011;4065;48.754;9.982;2022-11-11T15:54:48;26.77;;;19.92;;
8044;SDS011;4065;48.754;9.982;2022-11-11T15:57:49;22.33;;;17.88;;
8044;SDS011;4065;48.754;9.982;2022-11-11T16:00:53;20.30;;;15.55;;
8044;SDS011;4065;48.754;9.982;2022-11-11T16:03:57;22.90;;;18.02;;
8044;SDS011;4065;48.754;9.982;2022-11-11T16:06:58;19.63;;;16.30;;
8044;SDS011;4065;48.754;9.982;2022-11-11T16:10:05;49.13;;;33.83;;
8044;SDS011;4065;48.754;9.982;2022-11-11T16:13:16;25.73;;;19.08;;
8044;SDS011;4065;48.754;9.982;2022-11-11T16:16:23;19.85;;;16.40;;
8044;SDS011;4065;48.754;9.982;2022-11-11T16:19:30;27.75;;;20.75;;
8044;SDS011;4065;48.754;9.982;2022-11-11T16:22:36;24.23;;;16.92;;
8044;SDS011;4065;48.754;9.982;2022-11-11T16:25:38;31.63;;;22.63;;
8044;SDS011;4065;48.754;9.982;2022-11-11T16:28:43;32.92;;;25.67;;
8044;SDS011;4065;48.754;9.982;2022-11-11T16:31:48;38.35;;;28.13;;
8044;SDS011;4065;48.754;9.982;2022-11-11T16:34:51;36.67;;;28.45;;
8044;SDS011;4065;48.754;9.982;2022-11-11T16:37:53;29.95;;;22.52;;
8044;SDS011;4065;48.754;9.982;2022-11-11T16:40:59;47.50;;;27.90;;
8044;SDS011;4065;48.754;9.982;2022-11-11T16:44:21;58.08;;;23.65;;
8044;SDS011;4065;48.754;9.982;2022-11-11T16:47:42;62.97;;;27.95;;
8044;SDS011;4065;48.754;9.982;2022-11-11T16:50:52;66.88;;;30.33;;
8044;SDS011;4065;48.754;9.982;2022-11-11T16:53:54;55.88;;;32.85;;
8044;SDS011;4065;48.754;9.982;2022-11-11T16:57:07;74.22;;;29.15;;
8044;SDS011;4065;48.754;9.982;2022-11-11T17:00:12;54.63;;;31.65;;
8044;SDS011;4065;48.754;9.982;2022-11-11T17:03:17;50.97;;;32.67;;
8044;SDS011;4065;48.754;9.982;2022-11-11T17:09:51;63.40;;;36.42;;
8044;SDS011;4065;48.754;9.982;2022-11-11T17:12:54;81.80;;;38.03;;
8044;SDS011;4065;48.754;9.982;2022-11-11T17:15:57;69.22;;;36.42;;
8044;SDS011;4065;48.754;9.982;2022-11-11T17:19:01;66.38;;;41.22;;
8044;SDS011;4065;48.754;9.982;2022-11-11T17:22:04;49.88;;;40.75;;
8044;SDS011;4065;48.754;9.982;2022-11-11T17:25:07;42.42;;;31.02;;
8044;SDS011;4065;48.754;9.982;2022-11-11T17:28:09;47.25;;;33.55;;
8044;SDS011;4065;48.754;9.982;2022-11-11T17:31:11;42.97;;;30.33;;
8044;SDS011;4065;48.754;9.982;2022-11-11T17:34:15;43.60;;;28.48;;
8044;SDS011;4065;48.754;9.982;2022-11-11T17:37:17;34.35;;;26.30;;
8044;SDS011;4065;48.754;9.982;2022-11-11T17:40:18;36.72;;;25.60;;
8044;SDS011;4065;48.754;9.982;2022-11-11T17:43:20;32.50;;;23.48;;
8044;SDS011;4065;48.754;9.982;2022-11-11T17:46:22;29.33;;;22.90;;
8044;SDS011;4065;48.754;9.982;2022-11-11T17:49:25;23.35;;;18.65;;
8044;SDS011;4065;48.754;9.982;2022-11-11T17:52:26;24.58;;;18.80;;
8044;SDS011;4065;48.754;9.982;2022-11-11T17:55:29;23.20;;;18.92;;
8044;SDS011;4065;48.754;9.982;2022-11-11T17:58:31;22.73;;;16.67;;
8044;SDS011;4065;48.754;9.982;2022-11-11T18:01:35;36.47;;;16.30;;
8044;SDS011;4065;48.754;9.982;2022-11-11T18:04:38;37.25;;;16.85;;
8044;SDS011;4065;48.754;9.982;2022-11-11T18:07:40;26.10;;;20.98;;
8044;SDS011;4065;48.754;9.982;2022-11-11T18:10:42;23.23;;;17.38;;
8044;SDS011;4065;48.754;9.982;2022-11-11T18:13:43;24.13;;;18.80;;
8044;SDS011;4065;48.754;9.982;2022-11-11T18:16:45;19.35;;;16.52;;
8044;SDS011;4065;48.754;9.982;2022-11-11T18:19:48;17.08;;;14.82;;
8044;SDS011;4065;48.754;9.982;2022-11-11T18:22:53;17.27;;;13.73;;
8044;SDS011;4065;48.754;9.982;2022-11-11T18:25:58;15.13;;;13.63;;
8044;SDS011;4065;48.754;9.982;2022-11-11T18:28:59;16.25;;;13.43;;
8044;SDS011;4065;48.754;9.982;2022-11-11T18:32:01;16.88;;;15.07;;
8044;SDS011;4065;48.754;9.982;2022-11-11T18:35:06;21.52;;;17.80;;
8044;SDS011;4065;48.754;9.982;2022-11-11T18:38:07;18.45;;;16.40;;
8044;SDS011;4065;48.754;9.982;2022-11-11T18:41:09;29.17;;;22.63;;
8044;SDS011;4065;48.754;9.982;2022-11-11T18:44:12;26.33;;;20.38;;
8044;SDS011;4065;48.754;9.982;2022-11-11T18:47:14;32.28;;;26.65;;
8044;SDS011;4065;48.754;9.982;2022-11-11T18:50:17;22.48;;;18.50;;
8044;SDS011;4065;48.754;9.982;2022-11-11T18:53:18;17.60;;;15.57;;
8044;SDS011;4065;48.754;9.982;2022-11-11T18:56:23;20.23;;;18.10;;
8044;SDS011;4065;48.754;9.982;2022-11-11T18:59:25;20.55;;;17.70;;
8044;SDS011;4065;48.754;9.982;2022-11-11T19:02:28;18.10;;;16.23;;
8044;SDS011;4065;48.754;9.982;2022-11-11T19:05:31;15.23;;;13.73;;
8044;SDS011;4065;48.754;9.982;2022-11-11T19:08:33;16.77;;;15.00;;
8044;SDS011;4065;48.754;9.982;2022-11-11T19:11:35;16.77;;;13.38;;
8044;SDS011;4065;48.754;9.982;2022-11-11T19:14:39;12.48;;;11.20;;
8044;SDS011;4065;48.754;9.982;2022-11-11T19:17:40;14.32;;;12.82;;
8044;SDS011;4065;48.754;9.982;2022-11-11T19:20:43;15.25;;;13.65;;
8044;SDS011;4065;48.754;9.982;2022-11-11T19:23:45;18.05;;;16.13;;
8044;SDS011;4065;48.754;9.982;2022-11-11T19:26:48;20.90;;;18.20;;